Time;durP1;ratioP1;P1;durP2;ratioP2;P2;SDS_P1;SDS_P2;PMS_P1;PMS_P2;Temp;Humidity;BMP_temperature;BMP_pressure;BME280_temperature;BME280_humidity;BME280_pressure;Samples;Min_cycle;Max_cycle;Signal;HPM_P1;HPM_P2
2022/01/10 00:01:44;;;;;;;;;;;;;;;1.17;97.43;101084.22;5093635;28;19912;-36
2022/01/10 00:04:10;;;;;;;;;;;;;;;1.19;97.62;101086.69;5093700;28;20012;-41
2022/01/10 00:06:36;;;;;;;;;;;;;;;1.14;97.47;101094.34;5094134;28;19912;-36
2022/01/10 00:09:02;;;;;;;;;;;;;;;1.14;97.58;101102.34;5094152;28;20006;-36
2022/01/10 00:11:27;;;;;;;;;;;;;;;1.14;97.41;101116.47;5093792;28;20105;-36
2022/01/10 00:13:52;;;;;;;;;;;;;;;1.12;97.73;101121.13;5094009;28;19919;-36
2022/01/10 00:16:17;;;;;;;;;;;;;;;1.08;97.53;101119.81;5093809;28;19915;-37
2022/01/10 00:18:42;;;;;;;;;;;;;;;1.08;97.34;101130.47;5093823;28;19916;-36
2022/01/10 00:21:08;;;;;;;;;;;;;;;1.08;97.69;101129.63;5093758;28;19958;-36
2022/01/10 00:23:34;;;;;;;;;;;;;;;1.02;97.66;101139.94;5093695;28;19912;-36
2022/01/10 00:26:00;;;;;;;;;;;;;;;0.99;97.84;101142.91;5094243;28;19912;-36
2022/01/10 00:28:25;;;;;;;;;;;;;;;1.00;97.82;101139.25;5093424;28;19912;-36
2022/01/10 00:30:50;;;;;;;;;;;;;;;1.01;97.84;101135.59;5093929;28;19941;-36
2022/01/10 00:33:15;;;;;;;;;;;;;;;1.02;98.04;101134.59;5093958;28;19916;-36
2022/01/10 00:35:41;;;;;;;;;;;;;;;1.04;97.59;101129.13;5097909;28;20014;-36
2022/01/10 00:38:06;;;;;;;;;;;;;;;1.02;97.62;101131.09;5097894;28;19995;-36
2022/01/10 00:40:31;;;;;;;;;;;;;;;1.02;97.67;101144.41;5098140;28;19964;-36
2022/01/10 00:42:57;;;;;;;;;;;;;;;1.03;98.31;101138.94;5098551;28;19963;-36
2022/01/10 00:45:26;;;;;;;;;;;;;;;1.02;97.95;101141.75;5098195;28;19996;-36
2022/01/10 00:47:52;;;;;;;;;;;;;;;1.00;98.36;101144.56;5098352;28;20045;-36
2022/01/10 00:50:17;;;;;;;;;;;;;;;0.99;98.04;101150.06;5097897;28;19923;-36
2022/01/10 00:52:43;;;;;;;;;;;;;;;0.97;98.38;101150.22;5097467;28;19912;-36
2022/01/10 00:55:09;;;;;;;;;;;;;;;0.96;98.39;101148.53;5097678;28;19972;-36
2022/01/10 00:57:34;;;;;;;;;;;;;;;0.97;98.49;101155.53;5097547;28;19918;-36
2022/01/10 01:00:00;;;;;;;;;;;;;;;0.97;98.35;101160.03;5097319;28;19965;-36
2022/01/10 01:02:31;;;;;;;;;;;;;;;0.98;98.34;101172.38;5097493;28;19912;-36
2022/01/10 01:04:57;;;;;;;;;;;;;;;0.99;98.71;101182.84;5097783;28;20011;-36
2022/01/10 01:07:22;;;;;;;;;;;;;;;1.00;98.71;101197.00;5097370;28;19947;-36
2022/01/10 01:09:55;;;;;;;;;;;;;;;0.98;98.71;101191.84;5096988;28;20340;-36
2022/01/10 01:12:37;;;;;;;;;;;;;;;0.96;98.79;101195.66;5097412;28;19912;-36
2022/01/10 01:15:17;;;;;;;;;;;;;;;0.93;98.49;101199.47;5097393;28;19982;-36
2022/01/10 01:17:58;;;;;;;;;;;;;;;0.93;98.92;101206.63;5097876;28;19912;-36
2022/01/10 01:25:47;;;;;;;;;;;;;;;0.92;98.62;101215.59;5097397;28;19926;-36
2022/01/10 01:28:13;;;;;;;;;;;;;;;0.90;98.67;101220.25;5097094;28;19994;-36
2022/01/10 01:30:38;;;;;;;;;;;;;;;0.88;98.82;101219.56;5096785;28;19912;-36
2022/01/10 01:33:03;;;;;;;;;;;;;;;0.90;99.05;101225.59;5097123;28;19919;-36
2022/01/10 01:35:29;;;;;;;;;;;;;;;0.91;98.91;101228.06;5097462;28;19912;-36
2022/01/10 01:37:55;;;;;;;;;;;;;;;0.92;99.10;101236.91;5096631;28;19912;-36
2022/01/10 01:40:22;;;;;;;;;;;;;;;0.91;99.08;101241.41;5096583;28;20053;-36
2022/01/10 01:42:47;;;;;;;;;;;;;;;0.88;98.85;101233.75;5096259;28;19912;-36
2022/01/10 01:45:15;;;;;;;;;;;;;;;0.88;98.84;101247.06;5096128;28;20010;-36
2022/01/10 01:47:43;;;;;;;;;;;;;;;0.87;99.02;101249.84;5096396;28;19959;-36
2022/01/10 01:50:08;;;;;;;;;;;;;;;0.89;99.21;101262.03;5096652;28;20350;-36
2022/01/10 01:52:34;;;;;;;;;;;;;;;0.92;99.29;101268.84;5096554;28;19970;-36
2022/01/10 01:54:59;;;;;;;;;;;;;;;0.90;99.34;101281.50;5095960;28;20347;-36
2022/01/10 01:57:25;;;;;;;;;;;;;;;0.86;99.07;101280.13;5078096;28;19912;-36
2022/01/10 01:59:51;;;;;;;;;;;;;;;0.84;99.30;101285.63;5096027;28;19911;-36
2022/01/10 02:02:16;;;;;;;;;;;;;;;0.85;99.13;101287.28;5095888;28;19912;-36
2022/01/10 02:04:41;;;;;;;;;;;;;;;0.85;99.34;101281.13;5096440;28;19912;-36
2022/01/10 02:07:06;;;;;;;;;;;;;;;0.85;99.71;101275.81;5096576;28;19920;-36
2022/01/10 02:09:32;;;;;;;;;;;;;;;0.82;99.67;101284.94;5096619;28;19988;-36
2022/01/10 02:11:58;;;;;;;;;;;;;;;0.81;99.78;101288.59;5095945;28;20366;-36
2022/01/10 02:14:23;;;;;;;;;;;;;;;0.81;99.61;101287.75;5096195;28;20016;-36
2022/01/10 02:16:55;;;;;;;;;;;;;;;0.78;99.42;101288.91;5095891;28;19911;-36
2022/01/10 02:19:21;;;;;;;;;;;;;;;0.74;99.31;101292.88;5095883;28;19912;-36
2022/01/10 02:21:46;;;;;;;;;;;;;;;0.75;99.64;101291.88;5095893;28;20049;-36
2022/01/10 02:24:11;;;;;;;;;;;;;;;0.79;100.00;101292.44;5095988;28;19969;-36
2022/01/10 02:26:37;;;;;;;;;;;;;;;0.85;99.59;101310.44;5096011;28;19919;-36
2022/01/10 02:29:03;;;;;;;;;;;;;;;0.86;99.68;101306.78;5095703;28;20319;-36
2022/01/10 02:31:28;;;;;;;;;;;;;;;0.88;100.00;101307.44;5095977;28;19916;-33
2022/01/10 02:33:57;;;;;;;;;;;;;;;0.88;99.81;101328.72;5095270;28;19918;-33
2022/01/10 02:36:26;;;;;;;;;;;;;;;0.87;100.00;101325.25;5095216;28;19912;-33
2022/01/10 02:38:52;;;;;;;;;;;;;;;0.88;100.00;101324.28;5096291;28;20006;-33
2022/01/10 02:41:24;;;;;;;;;;;;;;;0.90;100.00;101332.94;5095091;28;19958;-35
2022/01/10 02:43:50;;;;;;;;;;;;;;;0.90;99.68;101340.09;5095962;28;19951;-35
2022/01/10 02:46:16;;;;;;;;;;;;;;;0.92;99.91;101338.09;5077196;28;19919;-35
2022/01/10 02:48:41;;;;;;;;;;;;;;;0.93;99.99;101347.78;5095332;28;19912;-35
2022/01/10 02:51:06;;;;;;;;;;;;;;;0.93;100.00;101348.59;5095278;28;19919;-35
2022/01/10 02:53:31;;;;;;;;;;;;;;;0.94;100.00;101349.44;5095402;28;20028;-35
2022/01/10 02:55:56;;;;;;;;;;;;;;;0.96;100.00;101366.09;5095809;28;19916;-36
2022/01/10 02:58:22;;;;;;;;;;;;;;;0.94;100.00;101373.41;5094783;28;20317;-35
2022/01/10 03:00:47;;;;;;;;;;;;;;;0.96;100.00;101371.41;5095111;28;19916;-35
2022/01/10 03:03:12;;;;;;;;;;;;;;;1.02;100.00;101376.97;5094981;28;20007;-35
2022/01/10 03:05:37;;;;;;;;;;;;;;;1.00;100.00;101378.94;5095234;28;20063;-35
2022/01/10 03:08:03;;;;;;;;;;;;;;;0.97;99.93;101368.56;5094868;28;19957;-35
2022/01/10 03:10:29;;;;;;;;;;;;;;;0.89;99.36;101375.69;5095114;28;20011;-35
2022/01/10 03:12:54;;;;;;;;;;;;;;;0.86;99.54;101387.47;5094768;28;19943;-35
2022/01/10 03:15:19;;;;;;;;;;;;;;;0.87;99.61;101399.78;5095012;28;19919;-36
2022/01/10 03:17:44;;;;;;;;;;;;;;;0.87;99.83;101389.16;5076966;28;19947;-35
2022/01/10 03:20:10;;;;;;;;;;;;;;;0.87;99.92;101393.63;5094360;28;19912;-35
2022/01/10 03:22:35;;;;;;;;;;;;;;;0.86;99.53;101390.13;5094608;28;19947;-35
2022/01/10 03:25:01;;;;;;;;;;;;;;;0.88;99.71;101404.16;5095596;28;19916;-36
2022/01/10 03:27:26;;;;;;;;;;;;;;;0.87;99.88;101407.78;5094512;28;19958;-36
2022/01/10 03:29:52;;;;;;;;;;;;;;;0.90;100.00;101401.31;5095081;28;19911;-36
2022/01/10 03:32:17;;;;;;;;;;;;;;;0.95;100.00;101412.34;5094428;28;19919;-35
2022/01/10 03:34:43;;;;;;;;;;;;;;;0.96;99.98;101419.34;5094382;28;20374;-36
2022/01/10 03:37:08;;;;;;;;;;;;;;;0.98;100.00;101412.88;5094797;28;20002;-36
2022/01/10 03:39:33;;;;;;;;;;;;;;;1.06;100.00;101419.25;5094616;28;20386;-36
2022/01/10 03:41:59;;;;;;;;;;;;;;;1.08;100.00;101428.78;5094235;28;19912;-36
2022/01/10 03:44:24;;;;;;;;;;;;;;;1.01;99.95;101438.34;5075900;28;19959;-35
2022/01/10 03:46:49;;;;;;;;;;;;;;;1.03;100.00;101441.72;5094935;28;20332;-36
2022/01/10 03:49:15;;;;;;;;;;;;;;;1.06;100.00;101446.72;5094626;28;19936;-36
2022/01/10 03:51:40;;;;;;;;;;;;;;;1.00;100.00;101442.03;5094115;28;19912;-36
2022/01/10 03:54:06;;;;;;;;;;;;;;;0.98;99.83;101452.00;5094310;28;19920;-35
2022/01/10 03:56:32;;;;;;;;;;;;;;;0.95;99.99;101458.47;5094098;28;19912;-35
2022/01/10 03:58:57;;;;;;;;;;;;;;;1.00;100.00;101458.84;5093703;28;19955;-36
2022/01/10 04:01:23;;;;;;;;;;;;;;;0.99;100.00;101459.00;5093919;28;20029;-36
2022/01/10 04:03:48;;;;;;;;;;;;;;;1.01;100.00;101471.16;5094264;28;20308;-36
2022/01/10 04:06:13;;;;;;;;;;;;;;;1.06;100.00;101470.69;5094376;28;19912;-36
2022/01/10 04:08:38;;;;;;;;;;;;;;;1.07;100.00;101469.69;5093442;28;19919;-36
2022/01/10 04:11:04;;;;;;;;;;;;;;;1.07;100.00;101469.69;5093549;28;19912;-36
2022/01/10 04:13:29;;;;;;;;;;;;;;;1.07;100.00;101477.69;5094292;28;20326;-36
2022/01/10 04:15:55;;;;;;;;;;;;;;;1.07;100.00;101485.69;5094090;28;19957;-35
2022/01/10 04:18:20;;;;;;;;;;;;;;;1.02;100.00;101482.66;5093964;28;20007;-36
2022/01/10 04:20:46;;;;;;;;;;;;;;;1.04;100.00;101491.34;5093951;28;19966;-36
2022/01/10 04:23:12;;;;;;;;;;;;;;;1.02;100.00;101494.16;5093352;28;19957;-36
2022/01/10 04:25:37;;;;;;;;;;;;;;;1.05;100.00;101494.84;5094163;28;19919;-36
2022/01/10 04:28:02;;;;;;;;;;;;;;;1.09;100.00;101499.69;5093897;28;19923;-36
2022/01/10 04:30:28;;;;;;;;;;;;;;;1.11;100.00;101502.19;5093628;28;19912;-36
2022/01/10 04:32:53;;;;;;;;;;;;;;;1.14;100.00;101508.06;5094341;28;19973;-36
2022/01/10 04:35:18;;;;;;;;;;;;;;;1.14;100.00;101505.41;5075953;28;19918;-36
2022/01/10 04:37:43;;;;;;;;;;;;;;;1.13;100.00;101518.88;5093744;28;19995;-36
2022/01/10 04:40:10;;;;;;;;;;;;;;;1.11;100.00;101519.03;5093769;28;19912;-36
2022/01/10 04:42:35;;;;;;;;;;;;;;;1.10;100.00;101540.50;5093427;28;20337;-36
2022/01/10 04:45:01;;;;;;;;;;;;;;;1.05;100.00;101546.28;5093216;28;19912;-36
2022/01/10 04:47:26;;;;;;;;;;;;;;;1.11;100.00;101550.97;5093691;28;19912;-36
2022/01/10 04:52:26;;;;;;;;;;;;;;;1.12;100.00;101557.97;5093725;28;19912;-35
2022/01/10 04:54:52;;;;;;;;;;;;;;;1.12;100.00;101557.97;5093790;28;19912;-36
2022/01/10 04:57:17;;;;;;;;;;;;;;;1.16;100.00;101570.00;5093320;28;20273;-36
2022/01/10 04:59:42;;;;;;;;;;;;;;;1.18;100.00;101569.88;5093881;28;20347;-36
2022/01/10 05:02:08;;;;;;;;;;;;;;;1.21;100.00;101574.88;5094299;28;19912;-36
2022/01/10 05:04:33;;;;;;;;;;;;;;;1.23;100.00;101579.09;5093514;28;19993;-36
2022/01/10 05:06:58;;;;;;;;;;;;;;;1.25;100.00;101579.75;5093164;28;19918;-36
2022/01/10 05:09:24;;;;;;;;;;;;;;;1.22;100.00;101596.06;5075830;28;19912;-36
2022/01/10 05:11:49;;;;;;;;;;;;;;;1.23;100.00;101597.75;5093234;28;19912;-35
2022/01/10 05:14:14;;;;;;;;;;;;;;;1.20;100.00;101599.88;5093752;28;20279;-36
2022/01/10 05:16:40;;;;;;;;;;;;;;;1.17;100.00;101600.16;5093198;28;20007;-36
2022/01/10 05:19:06;;;;;;;;;;;;;;;1.16;100.00;101612.63;5093669;28;20405;-36
2022/01/10 05:21:31;;;;;;;;;;;;;;;1.18;100.00;101616.00;5097024;28;19912;-36
2022/01/10 05:23:57;;;;;;;;;;;;;;;1.17;100.00;101613.47;5097283;28;19916;-36
2022/01/10 05:26:22;;;;;;;;;;;;;;;1.16;100.00;101623.28;5096793;28;19954;-36
2022/01/10 05:28:47;;;;;;;;;;;;;;;1.17;100.00;101627.66;5096783;28;20355;-36
2022/01/10 05:31:12;;;;;;;;;;;;;;;1.19;100.00;101616.84;5096422;28;19919;-35
2022/01/10 05:33:38;;;;;;;;;;;;;;;1.21;100.00;101626.34;5096848;28;19963;-36
2022/01/10 05:36:03;;;;;;;;;;;;;;;1.21;100.00;101631.69;5096548;28;19919;-36
2022/01/10 05:38:28;;;;;;;;;;;;;;;1.20;100.00;101647.81;5096585;28;19911;-36
2022/01/10 05:40:53;;;;;;;;;;;;;;;1.19;100.00;101652.31;5097303;28;19919;-36
2022/01/10 05:43:19;;;;;;;;;;;;;;;1.20;100.00;101656.66;5096817;28;20271;-36
2022/01/10 05:45:44;;;;;;;;;;;;;;;1.23;100.00;101667.03;5096742;28;20275;-36
2022/01/10 05:48:13;;;;;;;;;;;;;;;1.20;100.00;101667.31;5096412;28;20001;-36
2022/01/10 05:50:41;;;;;;;;;;;;;;;1.24;100.00;101668.69;5097162;28;19916;-36
2022/01/10 05:53:07;;;;;;;;;;;;;;;1.31;100.00;101673.41;5095912;28;20363;-35
2022/01/10 05:55:35;;;;;;;;;;;;;;;1.39;100.00;101681.50;5096049;28;19912;-36
2022/01/10 05:58:01;;;;;;;;;;;;;;;1.45;100.00;101676.41;5096173;28;19912;-36
2022/01/10 06:00:26;;;;;;;;;;;;;;;1.48;100.00;101680.59;5096228;28;19912;-35
2022/01/10 06:02:51;;;;;;;;;;;;;;;1.48;100.00;101685.94;5096435;28;20003;-36
2022/01/10 06:05:16;;;;;;;;;;;;;;;1.42;100.00;101689.22;5096402;28;19922;-35
2022/01/10 06:07:42;;;;;;;;;;;;;;;1.47;100.00;101694.94;5096014;28;19912;-35
2022/01/10 06:10:07;;;;;;;;;;;;;;;1.53;100.00;101695.16;5095941;28;19966;-36
2022/01/10 06:12:33;;;;;;;;;;;;;;;1.58;100.00;101699.19;5095891;28;19919;-36
2022/01/10 06:14:58;;;;;;;;;;;;;;;1.58;100.00;101696.53;5096385;28;20324;-36
2022/01/10 06:17:23;;;;;;;;;;;;;;;1.54;100.00;101695.97;5095746;28;19912;-35
2022/01/10 06:19:49;;;;;;;;;;;;;;;1.51;100.00;101710.47;5096653;28;19935;-36
2022/01/10 06:22:14;;;;;;;;;;;;;;;1.46;100.00;101711.88;5095783;28;19916;-36
2022/01/10 06:24:40;;;;;;;;;;;;;;;1.42;100.00;101723.84;5096361;28;20012;-36
2022/01/10 06:27:05;;;;;;;;;;;;;;;1.43;100.00;101730.84;5095734;28;20264;-36
2022/01/10 06:29:30;;;;;;;;;;;;;;;1.50;100.00;101737.25;5096236;28;19919;-36
2022/01/10 06:31:55;;;;;;;;;;;;;;;1.57;100.00;101751.69;5094591;28;20375;-36
2022/01/10 06:34:20;;;;;;;;;;;;;;;1.60;100.00;101747.84;5095776;28;20371;-36
2022/01/10 06:36:46;;;;;;;;;;;;;;;1.58;100.00;101758.69;5095138;28;19965;-36
2022/01/10 06:39:11;;;;;;;;;;;;;;;1.59;100.00;101763.00;5095703;28;19919;-35
2022/01/10 06:41:36;;;;;;;;;;;;;;;1.55;100.00;101762.47;5095381;28;20340;-35
2022/01/10 06:44:02;;;;;;;;;;;;;;;1.54;100.00;101765.28;5095521;28;20007;-36
2022/01/10 06:46:27;;;;;;;;;;;;;;;1.50;100.00;101759.41;5094916;28;19969;-36
2022/01/10 06:48:52;;;;;;;;;;;;;;;1.49;100.00;101764.91;5095533;28;19920;-36
2022/01/10 06:51:17;;;;;;;;;;;;;;;1.49;100.00;101768.41;5095348;28;19939;-36
2022/01/10 06:53:43;;;;;;;;;;;;;;;1.51;100.00;101776.25;5094251;28;19919;-36
2022/01/10 06:56:08;;;;;;;;;;;;;;;1.55;100.00;101782.97;5093612;28;19948;-36
2022/01/10 06:58:33;;;;;;;;;;;;;;;1.46;100.00;101786.50;5095369;28;19919;-36
2022/01/10 07:00:59;;;;;;;;;;;;;;;1.43;100.00;101786.84;5095026;28;19912;-36
2022/01/10 07:03:24;;;;;;;;;;;;;;;1.49;100.00;101797.72;5095238;28;19919;-36
2022/01/10 07:05:49;;;;;;;;;;;;;;;1.55;100.00;101802.47;5095257;28;19916;-36
2022/01/10 07:08:14;;;;;;;;;;;;;;;1.57;100.00;101813.00;5094819;28;19912;-36
2022/01/10 07:10:40;;;;;;;;;;;;;;;1.57;100.00;101814.81;5095058;28;19912;-36
2022/01/10 07:13:05;;;;;;;;;;;;;;;1.60;100.00;101815.34;5094329;28;19919;-36
2022/01/10 07:15:31;;;;;;;;;;;;;;;1.66;100.00;101828.09;5095193;28;19912;-36
2022/01/10 07:17:56;;;;;;;;;;;;;;;1.68;100.00;101819.94;5094628;28;20364;-36
2022/01/10 07:20:21;;;;;;;;;;;;;;;1.69;100.00;101835.78;5094251;28;19955;-36
2022/01/10 07:22:47;;;;;;;;;;;;;;;1.64;100.00;101840.72;5095001;28;19981;-36
2022/01/10 07:25:12;;;;;;;;;;;;;;;1.63;100.00;101855.06;5094805;28;19916;-36
2022/01/10 07:27:38;;;;;;;;;;;;;;;1.62;100.00;101861.38;5094899;28;20340;-35
2022/01/10 07:30:04;;;;;;;;;;;;;;;1.69;100.00;101858.94;5094429;28;19918;-35
2022/01/10 07:32:30;;;;;;;;;;;;;;;1.69;100.00;101856.28;5094077;28;19912;-36
2022/01/10 07:34:55;;;;;;;;;;;;;;;1.65;100.00;101863.72;5095031;28;19912;-36
2022/01/10 07:37:21;;;;;;;;;;;;;;;1.58;100.00;101870.66;5094237;28;19912;-35
2022/01/10 07:39:46;;;;;;;;;;;;;;;1.56;100.00;101872.59;5093824;28;19919;-36
2022/01/10 07:42:11;;;;;;;;;;;;;;;1.50;100.00;101882.03;5093727;28;20382;-36
2022/01/10 07:44:36;;;;;;;;;;;;;;;1.36;100.00;101887.84;5075821;28;19915;-36
2022/01/10 07:47:02;;;;;;;;;;;;;;;1.31;100.00;101899.91;5094220;28;19912;-36
2022/01/10 07:49:28;;;;;;;;;;;;;;;1.28;100.00;101904.56;5093987;28;19916;-36
2022/01/10 07:51:57;;;;;;;;;;;;;;;1.35;100.00;101904.81;5094047;28;20287;-36
2022/01/10 07:54:22;;;;;;;;;;;;;;;1.44;100.00;101906.63;5094226;28;20018;-36
2022/01/10 07:56:47;;;;;;;;;;;;;;;1.52;100.00;101909.41;5093976;28;20394;-36
2022/01/10 07:59:13;;;;;;;;;;;;;;;1.54;100.00;101909.25;5093686;28;20379;-35
2022/01/10 08:01:38;;;;;;;;;;;;;;;1.54;100.00;101919.91;5093588;28;19912;-36
2022/01/10 08:04:03;;;;;;;;;;;;;;;1.49;100.00;101925.69;5094426;28;19912;-36
2022/01/10 08:06:28;;;;;;;;;;;;;;;1.46;100.00;101939.28;5093819;28;19959;-35
2022/01/10 08:08:54;;;;;;;;;;;;;;;1.46;100.00;101944.63;5094156;28;20424;-36
2022/01/10 08:11:19;;;;;;;;;;;;;;;1.46;100.00;101949.94;5093829;28;19919;-36
2022/01/10 08:13:44;;;;;;;;;;;;;;;1.42;100.00;101958.41;5094000;28;19912;-36
2022/01/10 08:16:09;;;;;;;;;;;;;;;1.41;100.00;101962.03;5093996;28;19912;-36
2022/01/10 08:18:35;;;;;;;;;;;;;;;1.49;100.00;101960.34;5093967;28;19912;-36
2022/01/10 08:21:01;;;;;;;;;;;;;;;1.55;100.00;101967.75;5094409;28;20008;-36
2022/01/10 08:23:26;;;;;;;;;;;;;;;1.61;100.00;101971.69;5094428;28;19912;-35
2022/01/10 08:25:52;;;;;;;;;;;;;;;1.66;100.00;101976.56;5094618;28;19923;-36
2022/01/10 08:28:17;;;;;;;;;;;;;;;1.68;100.00;101978.09;5093287;28;20291;-36
2022/01/10 08:30:42;;;;;;;;;;;;;;;1.68;100.00;101994.09;5093641;28;20375;-36
2022/01/10 08:33:07;;;;;;;;;;;;;;;1.67;100.00;101989.75;5075376;28;19973;-35
2022/01/10 08:35:33;;;;;;;;;;;;;;;1.69;100.00;102001.13;5094098;28;19912;-36
2022/01/10 08:37:59;;;;;;;;;;;;;;;1.67;100.00;102008.44;5093994;28;19916;-36
2022/01/10 08:40:24;;;;;;;;;;;;;;;1.63;100.00;102011.53;5094016;28;19916;-36
2022/01/10 08:42:49;;;;;;;;;;;;;;;1.61;100.00;102014.34;5093682;28;20336;-36
2022/01/10 08:45:14;;;;;;;;;;;;;;;1.62;100.00;102025.84;5093760;28;19919;-36
2022/01/10 08:47:40;;;;;;;;;;;;;;;1.58;100.00;102030.63;5093392;28;19935;-35
2022/01/10 08:50:06;;;;;;;;;;;;;;;1.58;100.00;102035.94;5093477;28;19918;-36
2022/01/10 08:52:31;;;;;;;;;;;;;;;1.61;100.00;102046.34;5093224;28;19912;-35
2022/01/10 08:54:57;;;;;;;;;;;;;;;1.59;100.00;102042.13;5094586;28;19923;-36
2022/01/10 08:57:22;;;;;;;;;;;;;;;1.61;100.00;102050.81;5097339;28;19912;-36
2022/01/10 08:59:47;;;;;;;;;;;;;;;1.60;100.00;102052.63;5098121;28;19918;-35
2022/01/10 09:02:13;;;;;;;;;;;;;;;1.62;100.00;102061.34;5097229;28;19912;-36
2022/01/10 09:04:39;;;;;;;;;;;;;;;1.65;100.00;102061.03;5097480;28;19915;-36
2022/01/10 09:07:05;;;;;;;;;;;;;;;1.75;100.00;102066.38;5096875;28;20427;-36
2022/01/10 09:09:31;;;;;;;;;;;;;;;1.78;100.00;102072.25;5097119;28;20276;-36
2022/01/10 09:11:57;;;;;;;;;;;;;;;1.82;100.00;102072.00;5097062;28;19984;-36
2022/01/10 09:14:22;;;;;;;;;;;;;;;1.84;100.00;102075.34;5097250;28;19916;-36
2022/01/10 09:16:47;;;;;;;;;;;;;;;1.86;100.00;102076.06;5097203;28;19912;-35
2022/01/10 09:19:14;;;;;;;;;;;;;;;1.84;100.00;102086.00;5097998;28;19916;-36
2022/01/10 09:21:40;;;;;;;;;;;;;;;1.84;100.00;102086.84;5096846;28;19912;-35
2022/01/10 09:24:06;;;;;;;;;;;;;;;1.86;100.00;102092.06;5097370;28;19912;-36
2022/01/10 09:26:31;;;;;;;;;;;;;;;1.88;100.00;102092.75;5097964;28;19923;-36
2022/01/10 09:28:56;;;;;;;;;;;;;;;1.89;100.00;102089.91;5096530;28;19927;-35
2022/01/10 09:31:22;;;;;;;;;;;;;;;1.91;100.00;102101.31;5096650;28;20339;-36
2022/01/10 09:33:53;;;;;;;;;;;;;;;1.93;100.00;102101.16;5096670;28;19923;-35
2022/01/10 09:36:18;;;;;;;;;;;;;;;1.95;100.00;102101.84;5097370;28;19912;-35
2022/01/10 09:38:43;;;;;;;;;;;;;;;1.98;100.00;102102.41;5096343;28;20385;-36
2022/01/10 09:41:09;;;;;;;;;;;;;;;2.04;100.00;102104.47;5096806;28;20243;-36
2022/01/10 09:43:34;;;;;;;;;;;;;;;2.10;100.00;102104.88;5096730;28;19912;-36
2022/01/10 09:46:00;;;;;;;;;;;;;;;2.12;100.00;102111.78;5096192;28;20015;-36
2022/01/10 09:48:25;;;;;;;;;;;;;;;2.12;100.00;102106.44;5096331;28;20359;-36
2022/01/10 09:50:50;;;;;;;;;;;;;;;2.14;100.00;102115.13;5096378;28;19912;-35
2022/01/10 09:53:18;;;;;;;;;;;;;;;2.12;100.00;102118.94;5096227;28;19912;-35
2022/01/10 09:55:44;;;;;;;;;;;;;;;2.14;100.00;102125.81;5096723;28;20374;-36
2022/01/10 09:58:09;;;;;;;;;;;;;;;2.16;100.00;102131.84;5095860;28;19912;-36
2022/01/10 10:00:35;;;;;;;;;;;;;;;2.19;100.00;102136.88;5095898;28;19935;-36
2022/01/10 10:03:00;;;;;;;;;;;;;;;2.25;100.00;102140.84;5096012;28;20007;-36
2022/01/10 10:05:25;;;;;;;;;;;;;;;2.26;100.00;102154.03;5095781;28;19919;-35
2022/01/10 10:07:51;;;;;;;;;;;;;;;2.28;100.00;102156.53;5094903;28;19965;-36
2022/01/10 10:10:17;;;;;;;;;;;;;;;2.26;100.00;102162.03;5095694;28;19916;-36
2022/01/10 10:12:44;;;;;;;;;;;;;;;2.29;100.00;102163.56;5096049;28;20011;-36
2022/01/10 10:15:11;;;;;;;;;;;;;;;2.31;100.00;102167.78;5095799;28;19927;-36
2022/01/10 10:17:37;;;;;;;;;;;;;;;2.37;100.00;102173.53;5078144;28;20352;-36
2022/01/10 10:20:14;;;;;;;;;;;;;;;2.42;100.00;102181.94;5096021;28;19961;-36
2022/01/10 10:22:40;;;;;;;;;;;;;;;2.47;100.00;102180.50;5095982;28;19919;-36
2022/01/10 10:25:08;;;;;;;;;;;;;;;2.55;100.00;102185.13;5095881;28;20352;-36
2022/01/10 10:27:37;;;;;;;;;;;;;;;2.64;100.00;102183.44;5095608;28;19916;-36
2022/01/10 10:30:04;;;;;;;;;;;;;;;2.75;100.00;102194.75;5095670;28;19918;-36
2022/01/10 10:32:30;;;;;;;;;;;;;;;2.85;100.00;102197.38;5095402;28;19922;-36
2022/01/10 10:34:56;;;;;;;;;;;;;;;2.92;100.00;102200.31;5095418;28;20015;-36
2022/01/10 10:37:21;;;;;;;;;;;;;;;2.98;100.00;102205.09;5095676;28;20007;-36
2022/01/10 10:39:46;;;;;;;;;;;;;;;2.99;100.00;102207.59;5095468;28;20395;-36
2022/01/10 10:42:13;;;;;;;;;;;;;;;2.99;99.73;102207.59;5095308;28;19972;-36
2022/01/10 10:44:39;;;;;;;;;;;;;;;3.07;99.57;102212.19;5095358;28;19963;-36
2022/01/10 10:47:05;;;;;;;;;;;;;;;3.21;100.00;102216.19;5095208;28;19935;-36
2022/01/10 10:49:39;;;;;;;;;;;;;;;3.30;100.00;102205.44;5095753;28;19919;-36
2022/01/10 10:52:05;;;;;;;;;;;;;;;3.32;98.10;102216.84;5095961;28;19912;-36
2022/01/10 10:54:32;;;;;;;;;;;;;;;3.34;98.47;102212.19;5095584;28;19912;-36
2022/01/10 10:57:00;;;;;;;;;;;;;;;3.36;97.36;102215.53;5095543;28;20283;-36
2022/01/10 10:59:29;;;;;;;;;;;;;;;3.43;98.06;102221.16;5095301;28;19911;-36
2022/01/10 11:01:55;;;;;;;;;;;;;;;3.52;98.54;102230.94;5095694;28;19918;-36
2022/01/10 11:04:21;;;;;;;;;;;;;;;3.61;97.88;102234.50;5095152;28;19915;-36
2022/01/10 11:06:46;;;;;;;;;;;;;;;3.65;97.42;102233.22;5094807;28;19916;-36
2022/01/10 11:09:13;;;;;;;;;;;;;;;3.73;98.16;102235.16;5094808;28;20225;-37
2022/01/10 11:11:38;;;;;;;;;;;;;;;3.82;98.39;102237.75;5094709;28;19942;-36
2022/01/10 11:14:04;;;;;;;;;;;;;;;3.88;98.07;102241.66;5094908;28;20283;-36
2022/01/10 11:16:29;;;;;;;;;;;;;;;3.96;98.81;102240.91;5094599;28;19922;-36
2022/01/10 11:18:55;;;;;;;;;;;;;;;4.02;97.00;102237.59;5095113;28;19920;-36
2022/01/10 11:21:23;;;;;;;;;;;;;;;4.03;95.45;102250.00;5094506;28;20003;-36
2022/01/10 11:23:50;;;;;;;;;;;;;;;4.04;96.58;102251.66;5095145;28;19912;-36
2022/01/10 11:26:17;;;;;;;;;;;;;;;4.09;97.02;102252.88;5094280;28;19916;-36
2022/01/10 11:28:48;;;;;;;;;;;;;;;4.10;95.94;102251.91;5094472;28;20295;-36
2022/01/10 11:31:18;;;;;;;;;;;;;;;4.10;95.68;102262.63;5095158;28;19911;-36
2022/01/10 11:33:43;;;;;;;;;;;;;;;4.08;94.37;102259.22;5095159;28;19931;-36
2022/01/10 11:36:09;;;;;;;;;;;;;;;4.10;95.49;102270.66;5094410;28;20276;-36
2022/01/10 11:38:38;;;;;;;;;;;;;;;4.11;94.86;102269.66;5093943;28;19919;-36
2022/01/10 11:41:04;;;;;;;;;;;;;;;4.15;94.66;102270.19;5094878;28;20225;-36
2022/01/10 11:43:51;;;;;;;;;;;;;;;4.17;95.19;102267.34;5093868;28;19922;-36
2022/01/10 11:46:27;;;;;;;;;;;;;;;4.21;95.44;102266.88;5093874;28;19916;-36
2022/01/10 11:49:00;;;;;;;;;;;;;;;4.27;95.40;102276.97;5094587;28;20256;-36
2022/01/10 11:51:31;;;;;;;;;;;;;;;4.30;96.08;102283.88;5094519;28;20401;-36
2022/01/10 11:54:01;;;;;;;;;;;;;;;4.32;94.60;102288.06;5075714;28;19912;-36
2022/01/10 11:56:31;;;;;;;;;;;;;;;4.30;93.70;102281.19;5094477;28;19955;-36
2022/01/10 11:59:10;;;;;;;;;;;;;;;4.34;94.20;102286.09;5094458;28;19915;-36
2022/01/10 12:01:37;;;;;;;;;;;;;;;4.39;94.55;102297.19;5093914;28;19912;-36
2022/01/10 12:04:02;;;;;;;;;;;;;;;4.45;94.98;102297.56;5076550;28;20279;-36
2022/01/10 12:06:28;;;;;;;;;;;;;;;4.45;94.80;102297.56;5093955;28;19912;-36
2022/01/10 12:08:56;;;;;;;;;;;;;;;4.48;94.97;102303.41;5094432;28;19912;-36
2022/01/10 12:11:23;;;;;;;;;;;;;;;4.50;94.73;102301.44;5093814;28;19968;-36
2022/01/10 12:13:51;;;;;;;;;;;;;;;4.54;94.43;102305.50;5094031;28;19912;-36
2022/01/10 12:16:16;;;;;;;;;;;;;;;4.58;94.25;102309.53;5093660;28;19912;-36
2022/01/10 12:18:41;;;;;;;;;;;;;;;4.62;95.20;102310.91;5093668;28;20291;-36
2022/01/10 12:21:06;;;;;;;;;;;;;;;4.66;94.00;102314.13;5094228;28;19926;-36
2022/01/10 12:23:32;;;;;;;;;;;;;;;4.70;94.44;102310.13;5093453;28;19912;-36
2022/01/10 12:25:57;;;;;;;;;;;;;;;4.74;95.24;102327.59;5076211;28;19916;-36
2022/01/10 12:28:22;;;;;;;;;;;;;;;4.77;94.24;102319.22;5093615;28;19912;-36
2022/01/10 12:30:47;;;;;;;;;;;;;;;4.78;93.08;102326.28;5093583;28;19912;-36
2022/01/10 12:33:13;;;;;;;;;;;;;;;4.78;92.64;102328.09;5093222;28;20347;-36
2022/01/10 12:35:38;;;;;;;;;;;;;;;4.77;93.79;102321.88;5093484;28;19912;-36
2022/01/10 12:38:03;;;;;;;;;;;;;;;4.80;93.46;102335.00;5093527;28;19916;-36
2022/01/10 12:40:31;;;;;;;;;;;;;;;4.81;92.84;102331.31;5093437;28;19941;-36
2022/01/10 12:42:57;;;;;;;;;;;;;;;4.84;93.39;102339.03;5093450;28;19923;-36